sensor_id;sensor_type;location;lat;lon;timestamp;temperature;humidity
52034;DHT22;38045;52.988;6.536;2023-05-29T00:00:48;10.20;99.90
52034;DHT22;38045;52.988;6.536;2023-05-29T00:03:14;10.20;99.90
52034;DHT22;38045;52.988;6.536;2023-05-29T00:05:40;10.10;99.90
52034;DHT22;38045;52.988;6.536;2023-05-29T00:08:06;10.20;99.90
52034;DHT22;38045;52.988;6.536;2023-05-29T00:10:32;10.10;99.90
52034;DHT22;38045;52.988;6.536;2023-05-29T00:12:58;10.10;99.90
52034;DHT22;38045;52.988;6.536;2023-05-29T00:15:23;10.10;99.90
52034;DHT22;38045;52.988;6.536;2023-05-29T00:17:49;10.00;99.90
52034;DHT22;38045;52.988;6.536;2023-05-29T00:20:14;10.00;99.90
52034;DHT22;38045;52.988;6.536;2023-05-29T00:22:40;10.00;99.90
52034;DHT22;38045;52.988;6.536;2023-05-29T00:25:07;10.00;99.90
52034;DHT22;38045;52.988;6.536;2023-05-29T00:27:34;10.00;99.90
52034;DHT22;38045;52.988;6.536;2023-05-29T00:30:01;10.00;99.90
52034;DHT22;38045;52.988;6.536;2023-05-29T00:32:26;10.00;99.90
52034;DHT22;38045;52.988;6.536;2023-05-29T00:34:53;9.90;99.90
52034;DHT22;38045;52.988;6.536;2023-05-29T00:37:18;9.90;99.90
52034;DHT22;38045;52.988;6.536;2023-05-29T00:39:49;9.90;99.90
52034;DHT22;38045;52.988;6.536;2023-05-29T00:42:15;9.90;99.90
52034;DHT22;38045;52.988;6.536;2023-05-29T00:44:41;9.90;99.90
52034;DHT22;38045;52.988;6.536;2023-05-29T00:47:06;9.90;99.90
52034;DHT22;38045;52.988;6.536;2023-05-29T00:49:33;9.80;99.90
52034;DHT22;38045;52.988;6.536;2023-05-29T00:52:01;9.80;99.90
52034;DHT22;38045;52.988;6.536;2023-05-29T00:54:29;9.80;99.90
52034;DHT22;38045;52.988;6.536;2023-05-29T00:56:59;9.80;99.90
52034;DHT22;38045;52.988;6.536;2023-05-29T00:59:27;9.80;99.90
52034;DHT22;38045;52.988;6.536;2023-05-29T01:01:54;9.80;99.90
52034;DHT22;38045;52.988;6.536;2023-05-29T01:04:22;9.70;99.90
52034;DHT22;38045;52.988;6.536;2023-05-29T01:06:49;9.70;99.90
52034;DHT22;38045;52.988;6.536;2023-05-29T01:09:15;9.70;99.90
52034;DHT22;38045;52.988;6.536;2023-05-29T01:11:50;9.70;99.90
52034;DHT22;38045;52.988;6.536;2023-05-29T01:17:27;9.70;99.90
52034;DHT22;38045;52.988;6.536;2023-05-29T01:25:23;9.60;99.90
52034;DHT22;38045;52.988;6.536;2023-05-29T01:27:49;9.60;99.90
52034;DHT22;38045;52.988;6.536;2023-05-29T01:30:16;9.60;99.90
52034;DHT22;38045;52.988;6.536;2023-05-29T01:32:43;9.60;99.90
52034;DHT22;38045;52.988;6.536;2023-05-29T01:35:08;9.50;99.90
52034;DHT22;38045;52.988;6.536;2023-05-29T01:37:34;9.50;99.90
52034;DHT22;38045;52.988;6.536;2023-05-29T01:40:00;9.50;99.90
52034;DHT22;38045;52.988;6.536;2023-05-29T01:42:27;9.50;99.90
52034;DHT22;38045;52.988;6.536;2023-05-29T01:44:55;9.50;99.90
52034;DHT22;38045;52.988;6.536;2023-05-29T01:47:21;9.40;99.90
52034;DHT22;38045;52.988;6.536;2023-05-29T01:49:49;9.40;99.90
52034;DHT22;38045;52.988;6.536;2023-05-29T01:52:15;9.40;99.90
52034;DHT22;38045;52.988;6.536;2023-05-29T01:54:41;9.40;99.90
52034;DHT22;38045;52.988;6.536;2023-05-29T01:57:07;9.40;99.90
52034;DHT22;38045;52.988;6.536;2023-05-29T01:59:33;9.40;99.90
52034;DHT22;38045;52.988;6.536;2023-05-29T02:02:10;9.40;99.90
52034;DHT22;38045;52.988;6.536;2023-05-29T02:04:37;9.40;99.90
52034;DHT22;38045;52.988;6.536;2023-05-29T02:07:03;9.40;99.90
52034;DHT22;38045;52.988;6.536;2023-05-29T02:09:29;9.40;99.90
52034;DHT22;38045;52.988;6.536;2023-05-29T02:11:56;9.40;99.90
52034;DHT22;38045;52.988;6.536;2023-05-29T02:14:21;9.40;99.90
52034;DHT22;38045;52.988;6.536;2023-05-29T02:16:49;9.30;99.90
52034;DHT22;38045;52.988;6.536;2023-05-29T02:19:19;9.40;99.90
52034;DHT22;38045;52.988;6.536;2023-05-29T02:21:47;9.40;99.90
52034;DHT22;38045;52.988;6.536;2023-05-29T02:24:13;9.40;99.90
52034;DHT22;38045;52.988;6.536;2023-05-29T02:26:38;9.30;99.90
52034;DHT22;38045;52.988;6.536;2023-05-29T02:29:04;9.30;99.90
52034;DHT22;38045;52.988;6.536;2023-05-29T02:31:32;9.30;99.90
52034;DHT22;38045;52.988;6.536;2023-05-29T02:33:58;9.30;99.90
52034;DHT22;38045;52.988;6.536;2023-05-29T02:36:24;9.20;99.90
52034;DHT22;38045;52.988;6.536;2023-05-29T02:38:49;9.20;99.90
52034;DHT22;38045;52.988;6.536;2023-05-29T02:41:15;9.20;99.90
52034;DHT22;38045;52.988;6.536;2023-05-29T02:43:41;9.20;99.90
52034;DHT22;38045;52.988;6.536;2023-05-29T02:46:06;9.20;99.90
52034;DHT22;38045;52.988;6.536;2023-05-29T02:48:32;9.20;99.90
52034;DHT22;38045;52.988;6.536;2023-05-29T02:50:57;9.20;99.90
52034;DHT22;38045;52.988;6.536;2023-05-29T02:53:23;9.20;99.90
52034;DHT22;38045;52.988;6.536;2023-05-29T02:55:49;9.20;99.90
52034;DHT22;38045;52.988;6.536;2023-05-29T02:58:16;9.10;99.90
52034;DHT22;38045;52.988;6.536;2023-05-29T03:00:42;9.10;99.90
52034;DHT22;38045;52.988;6.536;2023-05-29T03:03:07;9.10;99.90
52034;DHT22;38045;52.988;6.536;2023-05-29T03:05:33;9.10;99.90
52034;DHT22;38045;52.988;6.536;2023-05-29T03:07:59;9.10;99.90
52034;DHT22;38045;52.988;6.536;2023-05-29T03:10:24;9.10;99.90
52034;DHT22;38045;52.988;6.536;2023-05-29T03:12:50;9.00;99.90
52034;DHT22;38045;52.988;6.536;2023-05-29T03:15:16;9.00;99.90
52034;DHT22;38045;52.988;6.536;2023-05-29T03:17:45;9.00;99.90
52034;DHT22;38045;52.988;6.536;2023-05-29T03:20:11;9.00;99.90
52034;DHT22;38045;52.988;6.536;2023-05-29T03:22:37;9.00;99.90
52034;DHT22;38045;52.988;6.536;2023-05-29T03:25:03;9.00;99.90
52034;DHT22;38045;52.988;6.536;2023-05-29T03:27:29;9.00;99.90
52034;DHT22;38045;52.988;6.536;2023-05-29T03:29:56;9.00;99.90
52034;DHT22;38045;52.988;6.536;2023-05-29T03:32:21;9.00;99.90
52034;DHT22;38045;52.988;6.536;2023-05-29T03:34:47;9.00;99.90
52034;DHT22;38045;52.988;6.536;2023-05-29T03:37:13;9.00;99.90
52034;DHT22;38045;52.988;6.536;2023-05-29T03:39:39;9.00;99.90
52034;DHT22;38045;52.988;6.536;2023-05-29T03:42:05;9.00;99.90
52034;DHT22;38045;52.988;6.536;2023-05-29T03:44:30;9.00;99.90
52034;DHT22;38045;52.988;6.536;2023-05-29T03:46:56;9.00;99.90
52034;DHT22;38045;52.988;6.536;2023-05-29T03:49:21;9.00;99.90
52034;DHT22;38045;52.988;6.536;2023-05-29T03:51:47;9.00;99.90
52034;DHT22;38045;52.988;6.536;2023-05-29T03:54:13;9.00;99.90
52034;DHT22;38045;52.988;6.536;2023-05-29T03:56:38;9.00;99.90
52034;DHT22;38045;52.988;6.536;2023-05-29T03:59:04;9.00;99.90
52034;DHT22;38045;52.988;6.536;2023-05-29T04:01:29;9.00;99.90
52034;DHT22;38045;52.988;6.536;2023-05-29T04:03:55;9.10;99.90
52034;DHT22;38045;52.988;6.536;2023-05-29T04:06:21;9.00;99.90
52034;DHT22;38045;52.988;6.536;2023-05-29T04:08:47;9.10;99.90
52034;DHT22;38045;52.988;6.536;2023-05-29T04:11:13;9.10;99.90
52034;DHT22;38045;52.988;6.536;2023-05-29T04:13:39;9.10;99.90
52034;DHT22;38045;52.988;6.536;2023-05-29T04:16:05;9.10;99.90
52034;DHT22;38045;52.988;6.536;2023-05-29T04:18:31;9.10;99.90
52034;DHT22;38045;52.988;6.536;2023-05-29T04:20:57;9.20;99.90
52034;DHT22;38045;52.988;6.536;2023-05-29T04:23:22;9.20;99.90
52034;DHT22;38045;52.988;6.536;2023-05-29T04:25:48;9.20;99.90
52034;DHT22;38045;52.988;6.536;2023-05-29T04:28:16;9.20;99.90
52034;DHT22;38045;52.988;6.536;2023-05-29T04:30:42;9.20;99.90
52034;DHT22;38045;52.988;6.536;2023-05-29T04:33:08;9.20;99.90
52034;DHT22;38045;52.988;6.536;2023-05-29T04:35:38;9.20;99.90
52034;DHT22;38045;52.988;6.536;2023-05-29T04:38:03;9.20;99.90
52034;DHT22;38045;52.988;6.536;2023-05-29T04:40:30;9.30;99.90
52034;DHT22;38045;52.988;6.536;2023-05-29T04:42:57;9.30;99.90
52034;DHT22;38045;52.988;6.536;2023-05-29T04:45:26;9.30;99.90
52034;DHT22;38045;52.988;6.536;2023-05-29T04:47:51;9.40;99.90
52034;DHT22;38045;52.988;6.536;2023-05-29T04:50:18;9.40;99.90
52034;DHT22;38045;52.988;6.536;2023-05-29T04:52:44;9.40;99.90
52034;DHT22;38045;52.988;6.536;2023-05-29T04:55:10;9.50;99.90
52034;DHT22;38045;52.988;6.536;2023-05-29T04:57:36;9.50;99.90
52034;DHT22;38045;52.988;6.536;2023-05-29T05:00:03;9.50;99.90
52034;DHT22;38045;52.988;6.536;2023-05-29T05:02:32;9.60;99.90
52034;DHT22;38045;52.988;6.536;2023-05-29T05:04:58;9.60;99.90
52034;DHT22;38045;52.988;6.536;2023-05-29T05:07:24;9.70;99.90
52034;DHT22;38045;52.988;6.536;2023-05-29T05:09:49;9.80;99.90
52034;DHT22;38045;52.988;6.536;2023-05-29T05:12:15;9.90;99.90
52034;DHT22;38045;52.988;6.536;2023-05-29T05:14:41;10.00;99.90
52034;DHT22;38045;52.988;6.536;2023-05-29T05:17:06;10.10;99.90
52034;DHT22;38045;52.988;6.536;2023-05-29T05:19:32;10.20;99.90
52034;DHT22;38045;52.988;6.536;2023-05-29T05:21:58;10.30;99.90
52034;DHT22;38045;52.988;6.536;2023-05-29T05:24:23;10.40;99.90
52034;DHT22;38045;52.988;6.536;2023-05-29T05:26:49;10.50;99.90
52034;DHT22;38045;52.988;6.536;2023-05-29T05:29:14;10.60;99.90
52034;DHT22;38045;52.988;6.536;2023-05-29T05:31:40;10.60;99.90
52034;DHT22;38045;52.988;6.536;2023-05-29T05:34:06;10.70;99.90
52034;DHT22;38045;52.988;6.536;2023-05-29T05:36:31;10.80;99.90
52034;DHT22;38045;52.988;6.536;2023-05-29T05:38:58;10.90;99.90
52034;DHT22;38045;52.988;6.536;2023-05-29T05:41:23;11.00;99.90
52034;DHT22;38045;52.988;6.536;2023-05-29T05:43:49;11.00;99.90
52034;DHT22;38045;52.988;6.536;2023-05-29T05:46:15;11.10;99.90
52034;DHT22;38045;52.988;6.536;2023-05-29T05:48:42;11.20;99.90
52034;DHT22;38045;52.988;6.536;2023-05-29T05:51:08;11.20;99.90
52034;DHT22;38045;52.988;6.536;2023-05-29T05:53:34;11.20;99.90
52034;DHT22;38045;52.988;6.536;2023-05-29T05:55:59;11.30;99.90
52034;DHT22;38045;52.988;6.536;2023-05-29T05:58:25;11.30;99.90
52034;DHT22;38045;52.988;6.536;2023-05-29T06:00:51;11.30;99.90
52034;DHT22;38045;52.988;6.536;2023-05-29T06:03:18;11.40;99.90
52034;DHT22;38045;52.988;6.536;2023-05-29T06:05:43;11.50;99.90
52034;DHT22;38045;52.988;6.536;2023-05-29T06:08:09;11.50;99.90
52034;DHT22;38045;52.988;6.536;2023-05-29T06:10:35;11.60;99.90
52034;DHT22;38045;52.988;6.536;2023-05-29T06:13:01;11.60;99.90
52034;DHT22;38045;52.988;6.536;2023-05-29T06:15:27;11.70;99.90
52034;DHT22;38045;52.988;6.536;2023-05-29T06:17:52;11.80;99.90
52034;DHT22;38045;52.988;6.536;2023-05-29T06:20:21;11.80;99.90
52034;DHT22;38045;52.988;6.536;2023-05-29T06:22:47;11.80;99.90
52034;DHT22;38045;52.988;6.536;2023-05-29T06:25:19;11.90;99.90
52034;DHT22;38045;52.988;6.536;2023-05-29T06:27:45;11.90;99.90
52034;DHT22;38045;52.988;6.536;2023-05-29T06:30:12;11.90;99.90
52034;DHT22;38045;52.988;6.536;2023-05-29T06:32:38;11.80;99.90
52034;DHT22;38045;52.988;6.536;2023-05-29T06:35:04;11.80;99.90
52034;DHT22;38045;52.988;6.536;2023-05-29T06:37:31;11.80;99.90
52034;DHT22;38045;52.988;6.536;2023-05-29T06:39:57;11.90;99.90
52034;DHT22;38045;52.988;6.536;2023-05-29T06:42:22;12.00;99.90
52034;DHT22;38045;52.988;6.536;2023-05-29T06:44:48;11.90;99.90
52034;DHT22;38045;52.988;6.536;2023-05-29T06:47:13;11.90;99.90
52034;DHT22;38045;52.988;6.536;2023-05-29T06:49:39;11.90;99.90
52034;DHT22;38045;52.988;6.536;2023-05-29T06:52:05;11.80;99.90
52034;DHT22;38045;52.988;6.536;2023-05-29T06:54:30;11.90;99.90
52034;DHT22;38045;52.988;6.536;2023-05-29T06:56:56;11.80;99.90
52034;DHT22;38045;52.988;6.536;2023-05-29T06:59:22;11.80;99.90
52034;DHT22;38045;52.988;6.536;2023-05-29T07:01:47;11.70;99.90
52034;DHT22;38045;52.988;6.536;2023-05-29T07:04:13;11.70;99.90
52034;DHT22;38045;52.988;6.536;2023-05-29T07:06:39;11.80;99.90
52034;DHT22;38045;52.988;6.536;2023-05-29T07:09:04;11.80;99.90
52034;DHT22;38045;52.988;6.536;2023-05-29T07:11:30;11.80;99.90
52034;DHT22;38045;52.988;6.536;2023-05-29T07:13:56;11.90;99.90
52034;DHT22;38045;52.988;6.536;2023-05-29T07:16:21;12.00;99.90
52034;DHT22;38045;52.988;6.536;2023-05-29T07:18:47;12.00;99.90
52034;DHT22;38045;52.988;6.536;2023-05-29T07:21:14;12.10;99.90
52034;DHT22;38045;52.988;6.536;2023-05-29T07:23:40;12.10;99.90
52034;DHT22;38045;52.988;6.536;2023-05-29T07:26:05;12.20;99.90
52034;DHT22;38045;52.988;6.536;2023-05-29T07:28:31;12.30;99.90
52034;DHT22;38045;52.988;6.536;2023-05-29T07:30:57;12.30;99.90
52034;DHT22;38045;52.988;6.536;2023-05-29T07:33:23;12.20;99.90
52034;DHT22;38045;52.988;6.536;2023-05-29T07:35:48;12.20;99.90
52034;DHT22;38045;52.988;6.536;2023-05-29T07:38:14;12.20;99.90
52034;DHT22;38045;52.988;6.536;2023-05-29T07:40:39;12.30;99.90
52034;DHT22;38045;52.988;6.536;2023-05-29T07:43:05;12.30;99.90
52034;DHT22;38045;52.988;6.536;2023-05-29T07:45:30;12.50;99.90
52034;DHT22;38045;52.988;6.536;2023-05-29T07:47:56;12.50;99.90
52034;DHT22;38045;52.988;6.536;2023-05-29T07:50:22;12.70;99.90
52034;DHT22;38045;52.988;6.536;2023-05-29T07:52:47;12.70;99.90
52034;DHT22;38045;52.988;6.536;2023-05-29T07:55:13;12.80;99.90
52034;DHT22;38045;52.988;6.536;2023-05-29T07:57:38;12.90;99.90
52034;DHT22;38045;52.988;6.536;2023-05-29T08:00:05;12.90;99.90
52034;DHT22;38045;52.988;6.536;2023-05-29T08:02:31;12.80;99.90
52034;DHT22;38045;52.988;6.536;2023-05-29T08:04:56;13.00;99.90
52034;DHT22;38045;52.988;6.536;2023-05-29T08:07:22;13.10;99.90
52034;DHT22;38045;52.988;6.536;2023-05-29T08:09:48;13.10;99.90
52034;DHT22;38045;52.988;6.536;2023-05-29T08:12:13;13.10;99.90
52034;DHT22;38045;52.988;6.536;2023-05-29T08:14:39;13.20;99.90
52034;DHT22;38045;52.988;6.536;2023-05-29T08:17:04;13.30;99.90
52034;DHT22;38045;52.988;6.536;2023-05-29T08:19:30;13.20;99.90
52034;DHT22;38045;52.988;6.536;2023-05-29T08:21:56;13.20;99.90
52034;DHT22;38045;52.988;6.536;2023-05-29T08:24:21;13.30;99.90
52034;DHT22;38045;52.988;6.536;2023-05-29T08:26:47;13.40;99.90
52034;DHT22;38045;52.988;6.536;2023-05-29T08:29:13;13.50;99.90
52034;DHT22;38045;52.988;6.536;2023-05-29T08:31:38;13.50;99.90
52034;DHT22;38045;52.988;6.536;2023-05-29T08:34:04;13.60;99.90
52034;DHT22;38045;52.988;6.536;2023-05-29T08:36:29;13.60;99.90
52034;DHT22;38045;52.988;6.536;2023-05-29T08:38:55;13.70;99.90
52034;DHT22;38045;52.988;6.536;2023-05-29T08:41:26;13.80;99.90
52034;DHT22;38045;52.988;6.536;2023-05-29T08:43:54;13.70;99.90
52034;DHT22;38045;52.988;6.536;2023-05-29T08:46:21;13.70;99.90
52034;DHT22;38045;52.988;6.536;2023-05-29T08:48:48;13.70;99.90
52034;DHT22;38045;52.988;6.536;2023-05-29T08:51:22;13.70;99.90
52034;DHT22;38045;52.988;6.536;2023-05-29T08:53:48;13.70;99.90
52034;DHT22;38045;52.988;6.536;2023-05-29T08:56:15;13.70;99.90
52034;DHT22;38045;52.988;6.536;2023-05-29T08:58:41;13.70;99.90
52034;DHT22;38045;52.988;6.536;2023-05-29T09:01:08;13.80;99.90
52034;DHT22;38045;52.988;6.536;2023-05-29T09:03:34;14.00;99.90
52034;DHT22;38045;52.988;6.536;2023-05-29T09:06:00;14.10;99.90
52034;DHT22;38045;52.988;6.536;2023-05-29T09:08:26;14.20;99.90
52034;DHT22;38045;52.988;6.536;2023-05-29T09:10:52;14.20;99.90
52034;DHT22;38045;52.988;6.536;2023-05-29T09:13:18;14.30;99.90
52034;DHT22;38045;52.988;6.536;2023-05-29T09:15:43;14.20;99.90
52034;DHT22;38045;52.988;6.536;2023-05-29T09:18:10;14.20;99.90
52034;DHT22;38045;52.988;6.536;2023-05-29T09:20:35;14.10;99.90
52034;DHT22;38045;52.988;6.536;2023-05-29T09:23:07;14.10;99.90
52034;DHT22;38045;52.988;6.536;2023-05-29T09:25:34;14.10;99.90
52034;DHT22;38045;52.988;6.536;2023-05-29T09:28:05;14.20;99.90
52034;DHT22;38045;52.988;6.536;2023-05-29T09:30:42;14.10;99.90
52034;DHT22;38045;52.988;6.536;2023-05-29T09:33:10;14.00;99.90
52034;DHT22;38045;52.988;6.536;2023-05-29T09:35:37;14.00;99.90
52034;DHT22;38045;52.988;6.536;2023-05-29T09:38:04;14.20;99.90
52034;DHT22;38045;52.988;6.536;2023-05-29T09:40:31;14.30;99.90
52034;DHT22;38045;52.988;6.536;2023-05-29T09:43:05;14.50;99.90
52034;DHT22;38045;52.988;6.536;2023-05-29T09:45:37;14.60;99.90
52034;DHT22;38045;52.988;6.536;2023-05-29T09:48:04;14.60;99.90
52034;DHT22;38045;52.988;6.536;2023-05-29T09:50:30;14.50;99.90
52034;DHT22;38045;52.988;6.536;2023-05-29T09:52:56;14.40;99.90
52034;DHT22;38045;52.988;6.536;2023-05-29T09:55:24;14.40;99.90
52034;DHT22;38045;52.988;6.536;2023-05-29T09:57:53;14.50;99.90
52034;DHT22;38045;52.988;6.536;2023-05-29T10:00:19;14.60;99.90
52034;DHT22;38045;52.988;6.536;2023-05-29T10:02:45;14.60;99.90
52034;DHT22;38045;52.988;6.536;2023-05-29T10:05:11;14.80;99.90
52034;DHT22;38045;52.988;6.536;2023-05-29T10:07:40;14.90;99.90
52034;DHT22;38045;52.988;6.536;2023-05-29T10:10:09;14.90;99.90
52034;DHT22;38045;52.988;6.536;2023-05-29T10:12:38;15.10;99.90
52034;DHT22;38045;52.988;6.536;2023-05-29T10:15:09;15.20;99.90
52034;DHT22;38045;52.988;6.536;2023-05-29T10:17:38;15.10;99.90
52034;DHT22;38045;52.988;6.536;2023-05-29T10:20:06;15.00;99.90
52034;DHT22;38045;52.988;6.536;2023-05-29T10:22:36;15.10;99.90
52034;DHT22;38045;52.988;6.536;2023-05-29T10:25:05;15.20;99.90
52034;DHT22;38045;52.988;6.536;2023-05-29T10:27:31;15.30;99.90
52034;DHT22;38045;52.988;6.536;2023-05-29T10:30:06;15.50;99.90
52034;DHT22;38045;52.988;6.536;2023-05-29T10:32:59;15.40;99.90
52034;DHT22;38045;52.988;6.536;2023-05-29T10:35:36;15.30;99.90
52034;DHT22;38045;52.988;6.536;2023-05-29T10:38:14;15.20;99.90
52034;DHT22;38045;52.988;6.536;2023-05-29T10:40:42;15.30;99.90
52034;DHT22;38045;52.988;6.536;2023-05-29T10:43:08;15.40;99.90
52034;DHT22;38045;52.988;6.536;2023-05-29T10:50:43;16.10;99.90
52034;DHT22;38045;52.988;6.536;2023-05-29T10:53:09;15.90;99.90
52034;DHT22;38045;52.988;6.536;2023-05-29T10:55:39;15.70;99.90
52034;DHT22;38045;52.988;6.536;2023-05-29T10:58:06;15.40;99.90
52034;DHT22;38045;52.988;6.536;2023-05-29T11:00:32;15.50;99.90
52034;DHT22;38045;52.988;6.536;2023-05-29T11:03:03;15.50;99.90
52034;DHT22;38045;52.988;6.536;2023-05-29T11:05:28;15.70;99.90
52034;DHT22;38045;52.988;6.536;2023-05-29T11:07:59;15.60;99.90
52034;DHT22;38045;52.988;6.536;2023-05-29T11:10:45;15.70;99.90
52034;DHT22;38045;52.988;6.536;2023-05-29T11:16:20;15.70;99.90
52034;DHT22;38045;52.988;6.536;2023-05-29T11:19:04;15.80;99.90
52034;DHT22;38045;52.988;6.536;2023-05-29T11:24:00;16.10;99.90
52034;DHT22;38045;52.988;6.536;2023-05-29T11:26:29;16.20;99.90
52034;DHT22;38045;52.988;6.536;2023-05-29T11:29:03;16.10;99.90
52034;DHT22;38045;52.988;6.536;2023-05-29T11:31:33;16.10;99.90
52034;DHT22;38045;52.988;6.536;2023-05-29T11:34:00;16.10;99.90
52034;DHT22;38045;52.988;6.536;2023-05-29T11:36:28;16.10;99.90
52034;DHT22;38045;52.988;6.536;2023-05-29T11:38:54;15.90;99.90
52034;DHT22;38045;52.988;6.536;2023-05-29T11:41:19;16.00;99.90
52034;DHT22;38045;52.988;6.536;2023-05-29T11:43:56;15.90;99.90
52034;DHT22;38045;52.988;6.536;2023-05-29T11:46:22;16.10;99.90
52034;DHT22;38045;52.988;6.536;2023-05-29T11:48:48;15.90;99.90
52034;DHT22;38045;52.988;6.536;2023-05-29T11:51:14;15.80;99.90
52034;DHT22;38045;52.988;6.536;2023-05-29T11:53:41;15.80;99.90
52034;DHT22;38045;52.988;6.536;2023-05-29T11:56:10;15.70;99.90
52034;DHT22;38045;52.988;6.536;2023-05-29T11:58:39;15.70;99.90
52034;DHT22;38045;52.988;6.536;2023-05-29T12:01:07;15.70;99.90
52034;DHT22;38045;52.988;6.536;2023-05-29T12:03:42;16.00;99.90
52034;DHT22;38045;52.988;6.536;2023-05-29T12:06:09;16.20;99.90
52034;DHT22;38045;52.988;6.536;2023-05-29T12:08:36;16.30;99.90
52034;DHT22;38045;52.988;6.536;2023-05-29T12:11:02;16.20;99.90
52034;DHT22;38045;52.988;6.536;2023-05-29T12:13:28;16.20;99.90
52034;DHT22;38045;52.988;6.536;2023-05-29T12:15:58;16.40;99.90
52034;DHT22;38045;52.988;6.536;2023-05-29T12:18:25;16.50;99.90
52034;DHT22;38045;52.988;6.536;2023-05-29T12:20:57;16.50;99.90
52034;DHT22;38045;52.988;6.536;2023-05-29T12:23:23;16.50;99.90
52034;DHT22;38045;52.988;6.536;2023-05-29T12:25:51;16.40;99.90
52034;DHT22;38045;52.988;6.536;2023-05-29T12:28:17;16.50;99.90
52034;DHT22;38045;52.988;6.536;2023-05-29T12:30:44;16.50;99.90
52034;DHT22;38045;52.988;6.536;2023-05-29T12:33:31;16.50;99.90
52034;DHT22;38045;52.988;6.536;2023-05-29T12:36:03;16.50;99.90
52034;DHT22;38045;52.988;6.536;2023-05-29T12:38:30;16.60;99.90
52034;DHT22;38045;52.988;6.536;2023-05-29T12:40:55;16.70;99.90
52034;DHT22;38045;52.988;6.536;2023-05-29T12:43:22;16.70;99.90
52034;DHT22;38045;52.988;6.536;2023-05-29T12:45:54;16.70;99.70
52034;DHT22;38045;52.988;6.536;2023-05-29T12:48:20;16.60;99.90
52034;DHT22;38045;52.988;6.536;2023-05-29T12:50:48;16.60;99.90
52034;DHT22;38045;52.988;6.536;2023-05-29T12:53:15;16.60;99.90
52034;DHT22;38045;52.988;6.536;2023-05-29T12:55:43;16.80;99.90
52034;DHT22;38045;52.988;6.536;2023-05-29T12:58:10;16.80;99.80
52034;DHT22;38045;52.988;6.536;2023-05-29T13:00:38;16.80;99.70
52034;DHT22;38045;52.988;6.536;2023-05-29T13:03:04;16.70;99.40
52034;DHT22;38045;52.988;6.536;2023-05-29T13:05:31;16.70;99.30
52034;DHT22;38045;52.988;6.536;2023-05-29T13:07:57;16.60;98.50
52034;DHT22;38045;52.988;6.536;2023-05-29T13:10:24;16.40;98.70
52034;DHT22;38045;52.988;6.536;2023-05-29T13:12:51;16.30;99.50
52034;DHT22;38045;52.988;6.536;2023-05-29T13:15:21;16.30;99.70
52034;DHT22;38045;52.988;6.536;2023-05-29T13:17:46;16.40;99.90
52034;DHT22;38045;52.988;6.536;2023-05-29T13:20:13;16.70;99.90
52034;DHT22;38045;52.988;6.536;2023-05-29T13:22:40;17.00;99.90
52034;DHT22;38045;52.988;6.536;2023-05-29T13:25:06;17.00;99.10
52034;DHT22;38045;52.988;6.536;2023-05-29T13:27:33;16.80;98.10
52034;DHT22;38045;52.988;6.536;2023-05-29T13:30:00;16.50;97.60
52034;DHT22;38045;52.988;6.536;2023-05-29T13:32:26;16.60;98.70
52034;DHT22;38045;52.988;6.536;2023-05-29T13:34:52;16.80;98.40
52034;DHT22;38045;52.988;6.536;2023-05-29T13:37:17;16.70;97.10
52034;DHT22;38045;52.988;6.536;2023-05-29T13:39:43;16.60;96.70
52034;DHT22;38045;52.988;6.536;2023-05-29T13:42:08;16.60;96.80
52034;DHT22;38045;52.988;6.536;2023-05-29T13:44:34;16.70;97.40
52034;DHT22;38045;52.988;6.536;2023-05-29T13:47:00;16.90;96.90
52034;DHT22;38045;52.988;6.536;2023-05-29T13:49:26;16.90;96.20
52034;DHT22;38045;52.988;6.536;2023-05-29T13:51:52;16.90;97.30
52034;DHT22;38045;52.988;6.536;2023-05-29T13:54:17;16.80;97.40
52034;DHT22;38045;52.988;6.536;2023-05-29T13:56:43;16.80;97.60
52034;DHT22;38045;52.988;6.536;2023-05-29T13:59:09;16.80;96.30
52034;DHT22;38045;52.988;6.536;2023-05-29T14:01:35;16.70;97.10
52034;DHT22;38045;52.988;6.536;2023-05-29T14:04:00;16.70;96.80
52034;DHT22;38045;52.988;6.536;2023-05-29T14:06:26;16.60;96.60
52034;DHT22;38045;52.988;6.536;2023-05-29T14:08:52;16.60;97.10
52034;DHT22;38045;52.988;6.536;2023-05-29T14:11:18;16.60;97.20
52034;DHT22;38045;52.988;6.536;2023-05-29T14:13:45;16.40;96.50
52034;DHT22;38045;52.988;6.536;2023-05-29T14:16:11;16.60;97.20
52034;DHT22;38045;52.988;6.536;2023-05-29T14:18:36;16.50;97.10
52034;DHT22;38045;52.988;6.536;2023-05-29T14:21:02;16.50;96.90
52034;DHT22;38045;52.988;6.536;2023-05-29T14:23:28;16.60;97.00
52034;DHT22;38045;52.988;6.536;2023-05-29T14:25:53;16.60;96.60
52034;DHT22;38045;52.988;6.536;2023-05-29T14:28:19;16.60;96.80
52034;DHT22;38045;52.988;6.536;2023-05-29T14:30:44;16.70;96.50
52034;DHT22;38045;52.988;6.536;2023-05-29T14:33:10;16.80;97.20
52034;DHT22;38045;52.988;6.536;2023-05-29T14:35:36;16.90;97.30
52034;DHT22;38045;52.988;6.536;2023-05-29T14:38:02;17.00;96.90
52034;DHT22;38045;52.988;6.536;2023-05-29T14:40:27;17.20;97.10
52034;DHT22;38045;52.988;6.536;2023-05-29T14:42:53;17.30;96.70
52034;DHT22;38045;52.988;6.536;2023-05-29T14:45:19;17.30;96.70
52034;DHT22;38045;52.988;6.536;2023-05-29T14:47:45;17.40;96.50
52034;DHT22;38045;52.988;6.536;2023-05-29T14:50:11;17.20;95.60
52034;DHT22;38045;52.988;6.536;2023-05-29T14:52:37;16.90;95.70
52034;DHT22;38045;52.988;6.536;2023-05-29T14:55:04;16.80;96.30
52034;DHT22;38045;52.988;6.536;2023-05-29T14:57:30;16.80;96.30
52034;DHT22;38045;52.988;6.536;2023-05-29T14:59:58;16.70;96.20
52034;DHT22;38045;52.988;6.536;2023-05-29T15:02:24;16.80;96.50
52034;DHT22;38045;52.988;6.536;2023-05-29T15:04:50;16.70;95.70
52034;DHT22;38045;52.988;6.536;2023-05-29T15:07:16;16.80;95.90
52034;DHT22;38045;52.988;6.536;2023-05-29T15:09:42;16.70;95.40
52034;DHT22;38045;52.988;6.536;2023-05-29T15:12:08;16.60;95.10
52034;DHT22;38045;52.988;6.536;2023-05-29T15:14:33;16.60;95.50
52034;DHT22;38045;52.988;6.536;2023-05-29T15:16:59;16.70;94.80
52034;DHT22;38045;52.988;6.536;2023-05-29T15:19:25;16.70;94.00
52034;DHT22;38045;52.988;6.536;2023-05-29T15:21:51;16.70;94.40
52034;DHT22;38045;52.988;6.536;2023-05-29T15:24:17;16.70;93.50
52034;DHT22;38045;52.988;6.536;2023-05-29T15:26:43;16.60;93.40
52034;DHT22;38045;52.988;6.536;2023-05-29T15:29:09;16.50;93.00
52034;DHT22;38045;52.988;6.536;2023-05-29T15:31:34;16.30;93.40
52034;DHT22;38045;52.988;6.536;2023-05-29T15:34:00;16.20;93.80
52034;DHT22;38045;52.988;6.536;2023-05-29T15:36:25;16.20;93.70
52034;DHT22;38045;52.988;6.536;2023-05-29T15:38:51;16.20;94.70
52034;DHT22;38045;52.988;6.536;2023-05-29T15:41:17;16.40;94.90
52034;DHT22;38045;52.988;6.536;2023-05-29T15:43:42;16.20;95.20
52034;DHT22;38045;52.988;6.536;2023-05-29T15:46:08;16.30;95.00
52034;DHT22;38045;52.988;6.536;2023-05-29T15:48:34;16.30;94.80
52034;DHT22;38045;52.988;6.536;2023-05-29T15:51:00;16.30;94.80